createdAt,value
2018-12-17T00:01:12.932Z,26.45
2018-12-17T00:03:40.382Z,25.65
2018-12-17T00:06:08.181Z,23.05
2018-12-17T00:08:35.673Z,23.47
2018-12-17T00:11:03.140Z,28.98
2018-12-17T00:13:30.574Z,27.37
2018-12-17T00:15:58.033Z,23.67
2018-12-17T00:18:25.480Z,27.40
2018-12-17T00:20:52.955Z,27.48
2018-12-17T00:23:20.392Z,26.75
2018-12-17T00:25:47.875Z,22.60
2018-12-17T00:28:15.302Z,22.00
2018-12-17T00:30:42.728Z,20.40
2018-12-17T00:33:10.203Z,24.63
2018-12-17T00:35:37.693Z,26.17
2018-12-17T00:38:05.157Z,22.60
2018-12-17T00:40:32.635Z,22.25
2018-12-17T00:43:00.065Z,25.62
2018-12-17T00:45:27.512Z,19.42
2018-12-17T00:47:55.121Z,25.77
2018-12-17T00:50:22.629Z,23.67
2018-12-17T00:52:50.112Z,22.65
2018-12-17T00:55:17.558Z,26.07
2018-12-17T00:57:45.142Z,27.35
2018-12-17T01:00:12.658Z,23.42
2018-12-17T01:02:40.096Z,24.85
2018-12-17T01:05:07.630Z,24.70
2018-12-17T01:07:35.552Z,24.98
2018-12-17T01:10:05.304Z,26.40
2018-12-17T01:12:32.749Z,23.30
2018-12-17T01:15:00.247Z,29.10
2018-12-17T01:17:27.729Z,23.27
2018-12-17T01:19:55.247Z,26.73
2018-12-17T01:22:22.717Z,23.80
2018-12-17T01:24:50.184Z,29.48
2018-12-17T01:27:17.668Z,25.60
2018-12-17T01:29:45.132Z,21.05
2018-12-17T01:32:12.654Z,28.45
2018-12-17T01:34:40.092Z,27.95
2018-12-17T01:37:07.549Z,25.02
2018-12-17T01:39:35.016Z,28.07
2018-12-17T01:42:02.497Z,33.02
2018-12-17T01:44:29.949Z,24.77
2018-12-17T01:46:57.394Z,25.45
2018-12-17T01:49:24.952Z,28.45
2018-12-17T01:51:52.526Z,23.45
2018-12-17T01:54:20.004Z,24.23
2018-12-17T01:56:47.456Z,26.30
2018-12-17T01:59:14.932Z,29.85
2018-12-17T02:01:42.452Z,25.77
2018-12-17T02:04:09.924Z,26.70
2018-12-17T02:06:37.424Z,26.60
2018-12-17T02:09:06.145Z,38.73
2018-12-17T02:11:33.610Z,75.32
2018-12-17T02:14:01.092Z,38.45
2018-12-17T02:16:28.588Z,57.83
2018-12-17T02:18:56.064Z,49.70
2018-12-17T02:21:23.551Z,63.33
2018-12-17T02:23:51.264Z,53.52
2018-12-17T02:26:18.807Z,60.28
2018-12-17T02:28:46.341Z,77.03
2018-12-17T02:31:13.800Z,52.30
2018-12-17T02:33:41.257Z,119.30
2018-12-17T02:36:08.752Z,110.65
2018-12-17T02:38:36.212Z,76.85
2018-12-17T02:41:03.708Z,133.72
2018-12-17T02:43:31.197Z,109.17
2018-12-17T02:45:58.686Z,157.07
2018-12-17T02:48:26.161Z,59.38
2018-12-17T02:50:53.618Z,91.12
2018-12-17T02:53:21.086Z,110.50
2018-12-17T02:55:48.528Z,104.63
2018-12-17T02:58:15.988Z,97.40
2018-12-17T03:00:43.453Z,96.70
2018-12-17T03:03:10.901Z,85.15
2018-12-17T03:05:38.366Z,82.05
2018-12-17T03:08:05.858Z,52.38
2018-12-17T03:10:33.285Z,73.30
2018-12-17T03:13:00.769Z,67.70
2018-12-17T03:15:28.244Z,54.18
2018-12-17T03:17:55.749Z,51.53
2018-12-17T03:20:23.201Z,47.45
2018-12-17T03:22:50.860Z,54.80
2018-12-17T03:25:18.316Z,47.38
2018-12-17T03:27:45.785Z,63.73
2018-12-17T03:30:13.262Z,86.97
2018-12-17T03:32:40.754Z,68.52
2018-12-17T03:35:08.276Z,88.90
2018-12-17T03:37:35.758Z,92.17
2018-12-17T03:40:03.388Z,48.20
2018-12-17T03:42:30.840Z,82.17
2018-12-17T03:44:58.282Z,74.97
2018-12-17T03:47:25.757Z,34.48
2018-12-17T03:49:53.304Z,67.25
2018-12-17T03:52:20.767Z,79.42
2018-12-17T03:54:48.228Z,64.45
2018-12-17T03:57:15.684Z,38.10
2018-12-17T03:59:43.154Z,41.33
2018-12-17T04:02:10.629Z,64.77
2018-12-17T04:04:38.095Z,76.97
2018-12-17T04:07:05.569Z,62.95
2018-12-17T04:09:33.015Z,62.38
2018-12-17T04:12:00.476Z,63.83
2018-12-17T04:14:27.912Z,44.15
2018-12-17T04:16:55.390Z,81.17
2018-12-17T04:19:22.838Z,35.35
2018-12-17T04:21:50.404Z,53.87
2018-12-17T04:24:17.983Z,37.40
2018-12-17T04:26:45.482Z,46.25
2018-12-17T04:29:12.981Z,44.33
2018-12-17T04:31:40.516Z,36.05
2018-12-17T04:34:07.973Z,44.77
2018-12-17T04:36:35.412Z,47.15
2018-12-17T04:39:03.789Z,68.70
2018-12-17T04:41:31.272Z,51.92
2018-12-17T04:43:58.734Z,41.35
2018-12-17T04:46:26.181Z,36.53
2018-12-17T04:48:53.661Z,35.10
2018-12-17T04:51:21.172Z,47.78
2018-12-17T04:53:48.622Z,39.10
2018-12-17T04:56:16.073Z,33.58
2018-12-17T04:58:43.538Z,42.08
2018-12-17T05:01:11.076Z,30.65
2018-12-17T05:03:38.641Z,28.40
2018-12-17T05:06:06.158Z,30.65
2018-12-17T05:08:33.625Z,30.52
2018-12-17T05:11:01.065Z,33.25
2018-12-17T05:13:28.521Z,33.70
2018-12-17T05:15:55.947Z,36.77
2018-12-17T05:18:23.392Z,22.55
2018-12-17T05:20:53.922Z,28.67
2018-12-17T05:23:21.644Z,25.20
2018-12-17T05:25:49.077Z,23.95
2018-12-17T05:28:16.548Z,23.45
2018-12-17T05:30:43.988Z,26.55
2018-12-17T05:33:11.648Z,26.40
2018-12-17T05:35:39.114Z,25.72
2018-12-17T05:38:06.677Z,35.40
2018-12-17T05:40:34.199Z,30.17
2018-12-17T05:43:01.788Z,30.55
2018-12-17T05:45:29.254Z,30.92
2018-12-17T05:47:56.724Z,28.60
2018-12-17T05:50:24.160Z,25.20
2018-12-17T05:52:51.646Z,27.45
2018-12-17T05:55:19.096Z,59.27
2018-12-17T05:57:46.552Z,29.75
2018-12-17T06:00:14.064Z,33.02
2018-12-17T06:02:41.568Z,36.60
2018-12-17T06:05:09.072Z,33.48
2018-12-17T06:07:36.514Z,52.30
2018-12-17T06:10:04.769Z,34.85
2018-12-17T06:12:32.225Z,51.65
2018-12-17T06:14:59.681Z,29.75
2018-12-17T06:17:27.167Z,26.40
2018-12-17T06:19:54.675Z,33.28
2018-12-17T06:22:22.159Z,29.23
2018-12-17T06:24:49.699Z,48.68
2018-12-17T06:27:17.169Z,36.13
2018-12-17T06:29:44.651Z,39.27
2018-12-17T06:32:12.107Z,32.75
2018-12-17T06:34:39.588Z,25.27
2018-12-17T06:37:07.186Z,44.50
2018-12-17T06:39:34.843Z,33.95
2018-12-17T06:42:02.346Z,28.75
2018-12-17T06:44:29.878Z,37.65
2018-12-17T06:46:57.361Z,29.90
2018-12-17T06:49:24.790Z,26.33
2018-12-17T06:51:53.029Z,22.60
2018-12-17T06:54:21.221Z,21.45
2018-12-17T06:56:48.685Z,25.88
2018-12-17T06:59:16.158Z,28.07
2018-12-17T07:01:43.646Z,26.05
2018-12-17T07:04:11.104Z,24.65
2018-12-17T07:06:38.822Z,17.80
2018-12-17T07:09:06.375Z,23.27
2018-12-17T07:11:33.845Z,20.72
2018-12-17T07:14:01.293Z,20.60
2018-12-17T07:16:28.748Z,21.10
2018-12-17T07:18:56.197Z,22.55
2018-12-17T07:21:23.628Z,21.45
2018-12-17T07:23:51.108Z,19.87
2018-12-17T07:26:18.567Z,32.38
2018-12-17T07:28:46.021Z,20.52
2018-12-17T07:31:13.471Z,27.13
2018-12-17T07:33:40.938Z,22.82
2018-12-17T07:36:08.448Z,30.57
2018-12-17T07:38:35.970Z,27.70
2018-12-17T07:41:03.419Z,24.30
2018-12-17T07:43:30.888Z,22.50
2018-12-17T07:45:58.390Z,20.00
2018-12-17T07:48:25.835Z,25.50
2018-12-17T07:50:53.358Z,26.68
2018-12-17T07:53:20.850Z,21.55
2018-12-17T07:55:48.291Z,22.52
2018-12-17T07:58:15.735Z,24.25
2018-12-17T08:00:43.236Z,20.90
2018-12-17T08:03:10.699Z,18.25
2018-12-17T08:05:38.158Z,20.43
2018-12-17T08:08:05.605Z,28.45
2018-12-17T08:10:33.059Z,15.45
2018-12-17T08:13:00.759Z,17.87
2018-12-17T08:15:28.281Z,21.00
2018-12-17T08:18:07.759Z,13.28
2018-12-17T08:20:35.205Z,17.65
2018-12-17T08:23:02.708Z,16.70
2018-12-17T08:25:30.595Z,19.82
2018-12-17T08:27:58.312Z,18.95
2018-12-17T08:30:25.921Z,17.73
2018-12-17T08:32:53.387Z,12.65
2018-12-17T08:35:21.413Z,12.60
2018-12-17T08:37:48.970Z,20.52
2018-12-17T08:40:16.801Z,12.90
2018-12-17T08:42:44.236Z,14.30
2018-12-17T08:45:11.747Z,15.13
2018-12-17T08:47:39.238Z,23.50
2018-12-17T08:50:06.798Z,21.37
2018-12-17T08:52:34.313Z,14.30
2018-12-17T08:55:02.137Z,16.75
2018-12-17T08:57:29.690Z,13.93
2018-12-17T08:59:57.368Z,14.85
2018-12-17T09:02:24.869Z,17.50
2018-12-17T09:04:52.318Z,14.68
2018-12-17T09:07:19.817Z,13.75
2018-12-17T09:09:47.313Z,18.25
2018-12-17T09:12:14.927Z,21.37
2018-12-17T09:14:42.509Z,13.45
2018-12-17T09:17:09.975Z,19.77
2018-12-17T09:19:37.583Z,18.70
2018-12-17T09:22:05.425Z,21.80
2018-12-17T09:24:32.881Z,17.23
2018-12-17T09:27:00.426Z,22.27
2018-12-17T09:29:27.993Z,20.20
2018-12-17T09:31:55.486Z,17.62
2018-12-17T09:34:23.016Z,19.52
2018-12-17T09:36:50.494Z,24.00
2018-12-17T09:39:18.186Z,15.85
2018-12-17T09:41:45.708Z,27.50
2018-12-17T09:44:13.149Z,22.67
2018-12-17T09:46:40.835Z,23.90
2018-12-17T09:49:08.409Z,20.35
2018-12-17T09:51:35.882Z,22.58
2018-12-17T09:54:03.411Z,29.50
2018-12-17T09:56:30.915Z,25.05
2018-12-17T09:58:58.445Z,19.52
2018-12-17T10:01:25.892Z,23.15
2018-12-17T10:03:53.368Z,24.90
2018-12-17T10:06:20.813Z,21.70
2018-12-17T10:08:48.333Z,22.55
2018-12-17T10:11:15.760Z,24.72
2018-12-17T10:13:43.362Z,22.17
2018-12-17T10:16:10.873Z,22.82
2018-12-17T10:18:38.387Z,22.62
2018-12-17T10:21:05.942Z,22.25
2018-12-17T10:23:33.645Z,24.87
2018-12-17T10:26:01.245Z,22.35
2018-12-17T10:28:28.725Z,22.37
2018-12-17T10:30:56.308Z,22.13
2018-12-17T10:33:23.745Z,27.20
2018-12-17T10:35:51.258Z,23.20
2018-12-17T10:38:18.691Z,22.70
2018-12-17T10:40:46.224Z,26.25
2018-12-17T10:43:13.744Z,26.60
2018-12-17T10:45:41.169Z,22.00
2018-12-17T10:48:08.719Z,21.85
2018-12-17T10:50:36.268Z,20.45
2018-12-17T10:53:03.884Z,20.35
2018-12-17T10:55:31.595Z,21.52
2018-12-17T10:57:59.144Z,21.52
2018-12-17T11:00:32.228Z,28.95
2018-12-17T11:03:01.274Z,29.60
2018-12-17T11:05:28.816Z,21.23
2018-12-17T11:07:56.272Z,20.37
2018-12-17T11:10:23.989Z,24.92
2018-12-17T11:12:51.404Z,18.35
2018-12-17T11:15:18.849Z,19.60
2018-12-17T11:17:46.313Z,20.40
2018-12-17T11:20:13.818Z,26.05
2018-12-17T11:22:41.340Z,22.75
2018-12-17T11:25:08.825Z,20.62
2018-12-17T11:27:36.294Z,21.95
2018-12-17T11:30:05.555Z,18.87
2018-12-17T11:32:33.092Z,23.20
2018-12-17T11:35:00.543Z,28.67
2018-12-17T11:37:28.024Z,19.48
2018-12-17T11:39:55.537Z,18.92
2018-12-17T11:42:23.100Z,18.12
2018-12-17T11:44:50.557Z,16.50
2018-12-17T11:47:18.488Z,22.10
2018-12-17T11:49:45.939Z,14.98
2018-12-17T11:52:13.361Z,19.57
2018-12-17T11:54:40.889Z,18.05
2018-12-17T11:57:16.869Z,15.90
2018-12-17T11:59:44.308Z,17.23
2018-12-17T12:02:11.796Z,18.07
2018-12-17T12:04:39.259Z,18.77
2018-12-17T12:07:06.802Z,21.35
2018-12-17T12:09:36.253Z,16.00
2018-12-17T12:12:03.967Z,16.55
2018-12-17T12:14:31.432Z,13.90
2018-12-17T12:16:58.911Z,10.88
2018-12-17T12:19:26.341Z,15.00
2018-12-17T12:21:53.819Z,16.37
2018-12-17T12:24:21.403Z,16.10
2018-12-17T12:26:48.832Z,10.88
2018-12-17T12:29:16.266Z,13.62
2018-12-17T12:31:43.734Z,12.15
2018-12-17T12:34:11.212Z,13.90
2018-12-17T12:36:38.644Z,13.45
2018-12-17T12:39:06.356Z,12.40
2018-12-17T12:41:33.824Z,14.80
2018-12-17T12:44:01.301Z,16.67
2018-12-17T12:46:28.780Z,16.57
2018-12-17T12:48:56.278Z,14.33
2018-12-17T12:51:23.700Z,16.27
2018-12-17T12:53:51.147Z,14.53
2018-12-17T12:56:18.660Z,18.52
2018-12-17T12:58:46.222Z,13.88
2018-12-17T13:01:13.664Z,17.05
2018-12-17T13:03:41.116Z,12.68
2018-12-17T13:06:08.557Z,15.85
2018-12-17T13:08:35.989Z,13.38
2018-12-17T13:11:03.447Z,14.05
2018-12-17T13:13:30.908Z,14.80
2018-12-17T13:15:58.832Z,14.10
2018-12-17T13:18:26.283Z,16.75
2018-12-17T13:20:53.824Z,15.40
2018-12-17T13:23:21.535Z,10.45
2018-12-17T13:25:48.980Z,13.95
2018-12-17T13:28:16.424Z,19.10
2018-12-17T13:30:43.864Z,11.28
2018-12-17T13:33:11.334Z,10.90
2018-12-17T13:35:38.814Z,12.03
2018-12-17T13:38:06.264Z,9.38
2018-12-17T13:40:33.720Z,10.78
2018-12-17T13:43:01.228Z,14.80
2018-12-17T13:45:28.848Z,17.67
2018-12-17T13:47:56.291Z,11.75
2018-12-17T13:50:30.151Z,12.47
2018-12-17T13:52:59.894Z,14.98
2018-12-17T13:55:27.377Z,10.53
2018-12-17T13:57:54.822Z,11.63
2018-12-17T14:00:22.261Z,12.53
2018-12-17T14:02:49.743Z,15.13
2018-12-17T14:05:17.205Z,11.03
2018-12-17T14:07:44.628Z,11.25
2018-12-17T14:10:17.895Z,14.65
2018-12-17T14:12:45.333Z,11.95
2018-12-17T14:15:12.853Z,11.73
2018-12-17T14:17:42.256Z,10.72
2018-12-17T14:20:15.340Z,13.98
2018-12-17T14:22:42.807Z,10.50
2018-12-17T14:25:10.260Z,12.88
2018-12-17T14:27:37.711Z,19.85
2018-12-17T14:30:07.561Z,13.90
2018-12-17T14:32:35.042Z,12.78
2018-12-17T14:35:02.464Z,11.70
2018-12-17T14:37:29.925Z,11.93
2018-12-17T14:39:57.356Z,11.28
2018-12-17T14:42:24.836Z,9.53
2018-12-17T14:44:52.276Z,9.90
2018-12-17T14:47:19.737Z,10.90
2018-12-17T14:49:47.249Z,9.40
2018-12-17T14:52:14.763Z,10.43
2018-12-17T14:54:42.255Z,12.13
2018-12-17T14:57:09.717Z,9.55
2018-12-17T14:59:37.145Z,9.93
2018-12-17T15:02:04.932Z,10.32
2018-12-17T15:04:32.472Z,12.10
2018-12-17T15:07:00.042Z,14.28
2018-12-17T15:09:27.547Z,14.45
2018-12-17T15:11:55.026Z,12.95
2018-12-17T15:14:22.463Z,12.68
2018-12-17T15:16:49.920Z,12.45
2018-12-17T15:19:17.395Z,13.55
2018-12-17T15:21:44.836Z,15.48
2018-12-17T15:24:12.313Z,11.95
2018-12-17T15:26:39.791Z,12.65
2018-12-17T15:29:07.343Z,13.45
2018-12-17T15:31:35.097Z,11.43
2018-12-17T15:34:02.733Z,15.88
2018-12-17T15:36:30.252Z,15.10
2018-12-17T15:38:57.746Z,15.85
2018-12-17T15:41:25.261Z,11.80
2018-12-17T15:43:52.724Z,12.50
2018-12-17T15:46:20.164Z,12.18
2018-12-17T15:48:47.640Z,16.52
2018-12-17T15:51:15.088Z,11.85
2018-12-17T15:53:42.547Z,12.65
2018-12-17T15:56:10.015Z,12.07
2018-12-17T15:58:37.532Z,14.43
2018-12-17T16:01:05.139Z,12.07
2018-12-17T16:03:32.581Z,13.80
2018-12-17T16:06:00.032Z,16.82
2018-12-17T16:08:27.499Z,10.63
2018-12-17T16:10:55.074Z,14.53
2018-12-17T16:13:22.506Z,13.60
2018-12-17T16:15:50.232Z,13.68
2018-12-17T16:18:17.676Z,12.78
2018-12-17T16:20:45.192Z,13.50
2018-12-17T16:23:12.661Z,18.05
2018-12-17T16:25:40.166Z,14.47
2018-12-17T16:28:07.650Z,18.87
2018-12-17T16:30:35.224Z,17.73
2018-12-17T16:33:02.671Z,14.58
2018-12-17T16:35:30.125Z,14.98
2018-12-17T16:37:57.592Z,11.65
2018-12-17T16:40:25.138Z,13.93
2018-12-17T16:42:52.604Z,15.08
2018-12-17T16:45:20.080Z,14.47
2018-12-17T16:47:47.839Z,10.82
2018-12-17T16:50:15.400Z,13.18
2018-12-17T16:52:42.875Z,13.25
2018-12-17T16:55:10.300Z,14.63
2018-12-17T16:57:37.748Z,12.95
2018-12-17T17:00:07.806Z,13.85
2018-12-17T17:02:35.273Z,14.70
2018-12-17T17:05:02.786Z,17.70
2018-12-17T17:07:30.264Z,13.95
2018-12-17T17:09:59.663Z,21.15
2018-12-17T17:12:27.124Z,17.27
2018-12-17T17:14:54.596Z,15.53
2018-12-17T17:17:22.039Z,14.47
2018-12-17T17:19:50.944Z,15.53
2018-12-17T17:22:18.737Z,17.60
2018-12-17T17:24:46.230Z,14.75
2018-12-17T17:27:13.667Z,16.00
2018-12-17T17:29:41.115Z,17.65
2018-12-17T17:32:11.784Z,20.23
2018-12-17T17:34:38.039Z,14.80
2018-12-17T17:37:05.517Z,15.80
2018-12-17T17:39:32.983Z,14.95
2018-12-17T17:42:00.538Z,15.93
2018-12-17T17:44:28.014Z,15.08
2018-12-17T17:46:59.997Z,12.93
2018-12-17T17:49:33.580Z,16.50
2018-12-17T17:52:01.133Z,18.25
2018-12-17T17:54:28.630Z,14.47
2018-12-17T17:56:56.149Z,17.62
2018-12-17T17:59:38.411Z,19.17
2018-12-17T18:02:05.958Z,13.05
2018-12-17T18:04:33.802Z,17.80
2018-12-17T18:07:12.447Z,19.77
2018-12-17T18:09:39.893Z,18.12
2018-12-17T18:12:07.341Z,22.05
2018-12-17T18:14:34.837Z,20.52
2018-12-17T18:17:03.228Z,18.23
2018-12-17T18:19:30.675Z,18.50
2018-12-17T18:21:58.137Z,19.30
2018-12-17T18:24:25.645Z,16.10
2018-12-17T18:26:53.301Z,20.17
2018-12-17T18:29:20.762Z,16.40
2018-12-17T18:31:48.234Z,18.00
2018-12-17T18:34:15.737Z,16.80
2018-12-17T18:36:43.248Z,17.95
2018-12-17T18:39:10.963Z,19.45
2018-12-17T18:41:38.509Z,26.12
2018-12-17T18:44:05.988Z,23.65
2018-12-17T18:46:33.433Z,31.52
2018-12-17T18:49:00.964Z,24.15
2018-12-17T18:51:28.401Z,21.90
2018-12-17T18:53:55.887Z,21.00
2018-12-17T18:56:23.330Z,21.12
2018-12-17T18:58:50.810Z,19.85
2018-12-17T19:01:18.290Z,23.18
2018-12-17T19:03:45.774Z,21.48
2018-12-17T19:06:13.878Z,19.67
2018-12-17T19:08:41.336Z,21.02
2018-12-17T19:11:08.883Z,19.98
2018-12-17T19:13:36.313Z,21.82
2018-12-17T19:16:03.918Z,21.17
2018-12-17T19:18:31.518Z,20.25
2018-12-17T19:20:59.061Z,20.30
2018-12-17T19:23:26.642Z,16.30
2018-12-17T19:25:54.152Z,22.07
2018-12-17T19:28:21.607Z,24.12
2018-12-17T19:30:49.122Z,19.60
2018-12-17T19:33:16.594Z,20.70
2018-12-17T19:35:44.177Z,23.60
2018-12-17T19:38:11.669Z,19.25
2018-12-17T19:40:39.111Z,22.30
2018-12-17T19:43:06.584Z,18.85
2018-12-17T19:45:34.048Z,24.72
2018-12-17T19:48:01.509Z,23.65
2018-12-17T19:50:28.990Z,24.15
2018-12-17T19:52:56.563Z,25.15
2018-12-17T19:55:24.146Z,25.85
2018-12-17T19:57:51.653Z,21.68
2018-12-17T20:00:19.234Z,28.40
2018-12-17T20:02:47.186Z,20.40
2018-12-17T20:05:15.166Z,24.77
2018-12-17T20:07:42.640Z,22.62
2018-12-17T20:10:12.118Z,20.45
2018-12-17T20:12:39.620Z,21.23
2018-12-17T20:15:07.159Z,24.02
2018-12-17T20:17:34.645Z,22.10
2018-12-17T20:20:02.159Z,27.52
2018-12-17T20:22:29.615Z,25.00
2018-12-17T20:24:57.071Z,21.93
2018-12-17T20:27:24.596Z,25.57
2018-12-17T20:29:52.069Z,22.90
2018-12-17T20:32:19.563Z,24.37
2018-12-17T20:34:47.059Z,22.13
2018-12-17T20:37:14.513Z,24.47
2018-12-17T20:39:42.015Z,28.98
2018-12-17T20:42:09.480Z,21.52
2018-12-17T20:44:36.933Z,24.95
2018-12-17T20:47:04.483Z,23.45
2018-12-17T20:49:31.947Z,23.83
2018-12-17T20:51:59.385Z,20.17
2018-12-17T20:54:26.895Z,21.30
2018-12-17T20:56:54.454Z,24.25
2018-12-17T20:59:22.290Z,20.88
2018-12-17T21:01:49.756Z,23.18
2018-12-17T21:04:17.278Z,21.02
2018-12-17T21:06:50.193Z,21.57
2018-12-17T21:09:19.628Z,24.45
2018-12-17T21:11:48.330Z,26.95
2018-12-17T21:14:23.337Z,19.00
2018-12-17T21:16:46.251Z,21.62
2018-12-17T21:19:13.777Z,22.90
2018-12-17T21:21:41.287Z,20.70
2018-12-17T21:24:09.043Z,22.37
2018-12-17T21:26:37.530Z,23.92
2018-12-17T21:29:05.215Z,22.58
2018-12-17T21:31:33.582Z,23.00
2018-12-17T21:34:01.041Z,24.02
2018-12-17T21:36:28.522Z,23.35
2018-12-17T21:39:07.179Z,24.52
2018-12-17T21:41:36.491Z,23.60
2018-12-17T21:44:04.005Z,24.90
2018-12-17T21:46:32.089Z,25.62
2018-12-17T21:49:01.144Z,27.87
2018-12-17T21:51:28.715Z,24.15
2018-12-17T21:53:56.265Z,23.00
2018-12-17T21:56:23.740Z,25.48
2018-12-17T21:58:51.337Z,26.65
2018-12-17T22:01:18.822Z,24.98
2018-12-17T22:03:46.319Z,20.50
2018-12-17T22:06:13.737Z,23.20
2018-12-17T22:08:41.195Z,23.95
2018-12-17T22:11:08.770Z,21.50
2018-12-17T22:13:36.229Z,21.70
2018-12-17T22:16:03.667Z,22.70
2018-12-17T22:18:31.196Z,22.00
2018-12-17T22:20:58.823Z,23.00
2018-12-17T22:23:26.302Z,22.82
2018-12-17T22:25:53.777Z,23.22
2018-12-17T22:28:21.350Z,21.57
2018-12-17T22:30:48.884Z,21.65
2018-12-17T22:33:19.714Z,26.25
2018-12-17T22:35:45.820Z,25.75
2018-12-17T22:38:14.159Z,25.40
2018-12-17T22:40:41.613Z,25.32
2018-12-17T22:43:09.089Z,23.15
2018-12-17T22:45:36.914Z,25.00
2018-12-17T22:48:04.661Z,22.37
2018-12-17T22:50:32.169Z,23.45
2018-12-17T22:52:59.676Z,27.00
2018-12-17T22:55:27.169Z,25.52
2018-12-17T22:57:54.624Z,22.98
2018-12-17T23:00:22.179Z,23.12
2018-12-17T23:02:49.643Z,23.00
2018-12-17T23:05:17.139Z,24.05
2018-12-17T23:07:44.564Z,25.10
2018-12-17T23:10:23.777Z,24.50
2018-12-17T23:13:03.096Z,25.08
2018-12-17T23:15:43.377Z,22.82
2018-12-17T23:18:10.409Z,25.70
2018-12-17T23:20:38.434Z,24.18
2018-12-17T23:23:05.913Z,22.22
2018-12-17T23:25:33.363Z,27.87
2018-12-17T23:28:00.837Z,30.55
2018-12-17T23:30:28.367Z,29.23
2018-12-17T23:32:58.014Z,28.60
2018-12-17T23:35:25.509Z,31.70
2018-12-17T23:37:53.009Z,29.55
2018-12-17T23:40:20.462Z,28.30
2018-12-17T23:42:47.920Z,26.62
2018-12-17T23:45:18.363Z,27.25
2018-12-17T23:47:45.822Z,27.07
2018-12-17T23:50:13.468Z,27.62
2018-12-17T23:52:40.943Z,30.65
2018-12-17T23:55:08.431Z,26.82
2018-12-17T23:57:35.874Z,24.70
